sensor_id;sensor_type;location;lat;lon;timestamp;pressure;altitude;pressure_sealevel;temperature;humidity
57894;BME280;43710;47.460;19.034;2023-03-23T04:59:27;100433.94;;;7.75;74.17
57894;BME280;43710;47.460;19.034;2023-03-23T05:02:30;100433.94;;;7.75;74.17
57894;BME280;43710;47.460;19.034;2023-03-23T05:05:32;100437.37;;;7.28;83.24
57894;BME280;43710;47.460;19.034;2023-03-23T05:08:37;100441.06;;;7.17;74.63
57894;BME280;43710;47.460;19.034;2023-03-23T05:11:40;100442.41;;;7.19;80.92
57894;BME280;43710;47.460;19.034;2023-03-23T05:14:41;100438.44;;;7.22;76.72
57894;BME280;43710;47.460;19.034;2023-03-23T05:17:43;100440.06;;;7.28;79.93
57894;BME280;43710;47.460;19.034;2023-03-23T05:20:46;100450.69;;;7.23;75.28
57894;BME280;43710;47.460;19.034;2023-03-23T05:23:48;100440.72;;;7.45;75.15
57894;BME280;43710;47.460;19.034;2023-03-23T05:26:56;100449.31;;;7.58;87.42
57894;BME280;43710;47.460;19.034;2023-03-23T05:29:58;100450.87;;;7.48;75.97
57894;BME280;43710;47.460;19.034;2023-03-23T05:32:59;100449.28;;;7.52;89.30
57894;BME280;43710;47.460;19.034;2023-03-23T05:36:02;100444.84;;;7.68;75.36
57894;BME280;43710;47.460;19.034;2023-03-23T05:39:06;100445.22;;;7.92;73.36
57894;BME280;43710;47.460;19.034;2023-03-23T05:42:10;100444.09;;;7.83;77.26
57894;BME280;43710;47.460;19.034;2023-03-23T05:45:13;100450.84;;;7.96;79.52
57894;BME280;43710;47.460;19.034;2023-03-23T05:48:14;100429.56;;;8.16;72.86
57894;BME280;43710;47.460;19.034;2023-03-23T05:51:16;100426.44;;;8.50;70.66
57894;BME280;43710;47.460;19.034;2023-03-23T05:54:17;100429.69;;;8.62;70.74
57894;BME280;43710;47.460;19.034;2023-03-23T05:57:20;100433.16;;;8.73;70.06
57894;BME280;43710;47.460;19.034;2023-03-23T06:00:24;100425.69;;;8.96;68.67
57894;BME280;43710;47.460;19.034;2023-03-23T06:03:26;100430.22;;;9.15;67.99
57894;BME280;43710;47.460;19.034;2023-03-23T06:06:29;100427.25;;;9.17;67.58
57894;BME280;43710;47.460;19.034;2023-03-23T06:09:33;100436.34;;;9.41;67.52
57894;BME280;43710;47.460;19.034;2023-03-23T06:12:37;100433.66;;;9.41;67.33
57894;BME280;43710;47.460;19.034;2023-03-23T06:15:40;100438.22;;;9.36;67.39
57894;BME280;43710;47.460;19.034;2023-03-23T06:18:42;100434.69;;;9.56;67.16
57894;BME280;43710;47.460;19.034;2023-03-23T06:21:45;100432.28;;;9.59;68.28
57894;BME280;43710;47.460;19.034;2023-03-23T06:24:46;100429.50;;;9.90;75.20
57894;BME280;43710;47.460;19.034;2023-03-23T06:27:48;100429.97;;;10.07;69.86
57894;BME280;43710;47.460;19.034;2023-03-23T06:30:50;100432.06;;;10.16;67.59
57894;BME280;43710;47.460;19.034;2023-03-23T06:33:51;100422.28;;;10.45;82.39
57894;BME280;43710;47.460;19.034;2023-03-23T06:36:55;100426.53;;;10.86;86.99
57894;BME280;43710;47.460;19.034;2023-03-23T06:39:57;100421.59;;;10.98;74.80
57894;BME280;43710;47.460;19.034;2023-03-23T06:42:59;100424.34;;;10.93;64.92
57894;BME280;43710;47.460;19.034;2023-03-23T06:46:02;100432.00;;;11.04;77.55
57894;BME280;43710;47.460;19.034;2023-03-23T06:49:05;100439.22;;;11.09;64.88
57894;BME280;43710;47.460;19.034;2023-03-23T06:52:11;100431.25;;;10.99;63.67
57894;BME280;43710;47.460;19.034;2023-03-23T06:55:13;100430.84;;;11.16;63.36
57894;BME280;43710;47.460;19.034;2023-03-23T06:58:15;100426.63;;;11.10;63.92
57894;BME280;43710;47.460;19.034;2023-03-23T07:01:17;100429.72;;;11.22;63.68
57894;BME280;43710;47.460;19.034;2023-03-23T07:04:19;100429.78;;;11.41;63.76
57894;BME280;43710;47.460;19.034;2023-03-23T07:07:21;100433.41;;;11.55;67.01
57894;BME280;43710;47.460;19.034;2023-03-23T07:10:23;100432.03;;;11.58;61.37
57894;BME280;43710;47.460;19.034;2023-03-23T07:13:25;100437.97;;;11.55;61.46
57894;BME280;43710;47.460;19.034;2023-03-23T07:16:28;100431.34;;;11.71;61.38
57894;BME280;43710;47.460;19.034;2023-03-23T07:19:30;100436.91;;;11.80;61.65
57894;BME280;43710;47.460;19.034;2023-03-23T07:22:33;100441.38;;;11.89;62.34
57894;BME280;43710;47.460;19.034;2023-03-23T07:25:52;100448.75;;;12.21;67.07
57894;BME280;43710;47.460;19.034;2023-03-23T07:28:55;100447.97;;;12.40;63.41
57894;BME280;43710;47.460;19.034;2023-03-23T07:31:56;100448.84;;;12.54;73.35
57894;BME280;43710;47.460;19.034;2023-03-23T07:34:58;100444.34;;;12.50;59.66
57894;BME280;43710;47.460;19.034;2023-03-23T07:38:00;100451.03;;;12.52;60.17
57894;BME280;43710;47.460;19.034;2023-03-23T07:41:02;100448.78;;;12.59;61.34
57894;BME280;43710;47.460;19.034;2023-03-23T07:44:05;100454.59;;;12.66;68.32
57894;BME280;43710;47.460;19.034;2023-03-23T07:47:08;100457.50;;;12.70;61.68
57894;BME280;43710;47.460;19.034;2023-03-23T07:50:09;100463.84;;;12.93;75.30
57894;BME280;43710;47.460;19.034;2023-03-23T07:53:12;100462.44;;;12.82;58.40
57894;BME280;43710;47.460;19.034;2023-03-23T07:56:15;100458.53;;;12.88;64.91
57894;BME280;43710;47.460;19.034;2023-03-23T07:59:21;100463.59;;;13.27;69.13
57894;BME280;43710;47.460;19.034;2023-03-23T08:02:23;100468.88;;;13.32;64.95
57894;BME280;43710;47.460;19.034;2023-03-23T08:05:26;100460.50;;;13.34;59.42
57894;BME280;43710;47.460;19.034;2023-03-23T08:08:32;100466.19;;;13.32;58.23
57894;BME280;43710;47.460;19.034;2023-03-23T08:11:35;100465.50;;;13.40;69.55
57894;BME280;43710;47.460;19.034;2023-03-23T08:14:36;100462.84;;;13.54;58.39
57894;BME280;43710;47.460;19.034;2023-03-23T08:17:39;100465.25;;;13.70;73.80
57894;BME280;43710;47.460;19.034;2023-03-23T08:20:41;100467.06;;;13.88;71.56
57894;BME280;43710;47.460;19.034;2023-03-23T08:23:44;100464.84;;;14.04;68.80
57894;BME280;43710;47.460;19.034;2023-03-23T08:26:46;100468.50;;;14.22;63.42
57894;BME280;43710;47.460;19.034;2023-03-23T08:29:48;100473.00;;;14.26;70.33
57894;BME280;43710;47.460;19.034;2023-03-23T08:32:50;100471.31;;;14.17;55.95
57894;BME280;43710;47.460;19.034;2023-03-23T08:35:57;100465.44;;;14.15;54.18
57894;BME280;43710;47.460;19.034;2023-03-23T08:38:59;100468.63;;;14.03;54.06
57894;BME280;43710;47.460;19.034;2023-03-23T08:42:01;100472.72;;;14.14;56.75
57894;BME280;43710;47.460;19.034;2023-03-23T08:45:06;100466.09;;;14.20;54.59
57894;BME280;43710;47.460;19.034;2023-03-23T08:48:09;100473.00;;;14.26;58.69
57894;BME280;43710;47.460;19.034;2023-03-23T08:51:12;100470.28;;;14.54;71.91
57894;BME280;43710;47.460;19.034;2023-03-23T08:54:14;100469.19;;;14.55;56.96
57894;BME280;43710;47.460;19.034;2023-03-23T08:57:15;100474.22;;;14.93;69.00
57894;BME280;43710;47.460;19.034;2023-03-23T09:00:19;100465.34;;;14.92;61.97
57894;BME280;43710;47.460;19.034;2023-03-23T09:03:23;100468.97;;;15.10;66.12
57894;BME280;43710;47.460;19.034;2023-03-23T09:06:25;100474.91;;;15.21;64.83
57894;BME280;43710;47.460;19.034;2023-03-23T09:09:28;100457.13;;;15.20;65.11
57894;BME280;43710;47.460;19.034;2023-03-23T09:12:30;100466.34;;;15.27;57.08
57894;BME280;43710;47.460;19.034;2023-03-23T09:15:31;100455.72;;;15.31;59.93
57894;BME280;43710;47.460;19.034;2023-03-23T09:18:35;100453.09;;;15.40;56.40
57894;BME280;43710;47.460;19.034;2023-03-23T09:21:36;100453.38;;;15.38;58.07
57894;BME280;43710;47.460;19.034;2023-03-23T09:24:38;100454.22;;;15.47;53.90
57894;BME280;43710;47.460;19.034;2023-03-23T09:27:40;100452.66;;;15.55;52.60
57894;BME280;43710;47.460;19.034;2023-03-23T09:30:42;100450.31;;;15.62;55.24
57894;BME280;43710;47.460;19.034;2023-03-23T09:33:45;100445.69;;;15.63;52.81
57894;BME280;43710;47.460;19.034;2023-03-23T09:36:48;100447.13;;;15.60;53.99
57894;BME280;43710;47.460;19.034;2023-03-23T09:39:50;100443.44;;;15.87;61.54
57894;BME280;43710;47.460;19.034;2023-03-23T09:53:03;100427.78;;;16.33;51.89
57894;BME280;43710;47.460;19.034;2023-03-23T09:56:14;100430.78;;;16.49;55.17
57894;BME280;43710;47.460;19.034;2023-03-23T10:05:45;100414.06;;;16.90;52.06
57894;BME280;43710;47.460;19.034;2023-03-23T10:08:53;100417.09;;;16.88;51.44
57894;BME280;43710;47.460;19.034;2023-03-23T10:12:07;100416.28;;;16.88;50.31
57894;BME280;43710;47.460;19.034;2023-03-23T10:15:14;100405.31;;;16.84;48.36
57894;BME280;43710;47.460;19.034;2023-03-23T10:18:24;100404.50;;;16.93;48.61
57894;BME280;43710;47.460;19.034;2023-03-23T10:21:28;100394.47;;;16.93;48.62
57894;BME280;43710;47.460;19.034;2023-03-23T10:24:36;100400.69;;;16.94;47.66
57894;BME280;43710;47.460;19.034;2023-03-23T10:27:45;100392.84;;;17.01;51.19
57894;BME280;43710;47.460;19.034;2023-03-23T10:30:55;100383.44;;;17.16;50.75
57894;BME280;43710;47.460;19.034;2023-03-23T10:34:02;100375.25;;;17.24;50.46
57894;BME280;43710;47.460;19.034;2023-03-23T10:37:22;100364.69;;;17.31;50.34
57894;BME280;43710;47.460;19.034;2023-03-23T10:40:27;100368.38;;;17.35;50.08
57894;BME280;43710;47.460;19.034;2023-03-23T10:43:31;100368.53;;;17.30;47.45
57894;BME280;43710;47.460;19.034;2023-03-23T10:49:48;100371.63;;;17.50;49.14
57894;BME280;43710;47.460;19.034;2023-03-23T10:52:52;100353.78;;;17.49;46.75
57894;BME280;43710;47.460;19.034;2023-03-23T10:55:54;100348.69;;;17.47;46.47
57894;BME280;43710;47.460;19.034;2023-03-23T10:58:56;100356.50;;;17.49;45.60
57894;BME280;43710;47.460;19.034;2023-03-23T11:02:00;100350.09;;;17.53;44.69
57894;BME280;43710;47.460;19.034;2023-03-23T11:05:20;100354.88;;;17.56;45.57
57894;BME280;43710;47.460;19.034;2023-03-23T11:08:28;100365.19;;;17.63;46.52
57894;BME280;43710;47.460;19.034;2023-03-23T11:11:37;100369.97;;;17.66;47.41
57894;BME280;43710;47.460;19.034;2023-03-23T11:14:39;100348.41;;;17.70;45.15
57894;BME280;43710;47.460;19.034;2023-03-23T11:17:43;100349.50;;;17.77;46.86
57894;BME280;43710;47.460;19.034;2023-03-23T11:20:47;100346.06;;;17.89;45.74
57894;BME280;43710;47.460;19.034;2023-03-23T11:23:58;100338.72;;;17.90;44.27
57894;BME280;43710;47.460;19.034;2023-03-23T11:27:00;100332.03;;;17.87;44.20
57894;BME280;43710;47.460;19.034;2023-03-23T11:30:20;100327.00;;;17.98;45.27
57894;BME280;43710;47.460;19.034;2023-03-23T11:33:23;100321.87;;;18.05;43.50
57894;BME280;43710;47.460;19.034;2023-03-23T11:36:35;100329.34;;;18.08;42.57
57894;BME280;43710;47.460;19.034;2023-03-23T11:39:53;100331.84;;;18.13;44.64
57894;BME280;43710;47.460;19.034;2023-03-23T11:43:00;100327.88;;;18.11;45.75
57894;BME280;43710;47.460;19.034;2023-03-23T11:46:15;100333.09;;;18.16;44.79
57894;BME280;43710;47.460;19.034;2023-03-23T11:49:35;100325.50;;;18.09;42.73
57894;BME280;43710;47.460;19.034;2023-03-23T11:59:28;100320.66;;;17.94;47.23
57894;BME280;43710;47.460;19.034;2023-03-23T12:06:44;100317.81;;;17.90;43.52
57894;BME280;43710;47.460;19.034;2023-03-23T12:10:04;100313.94;;;18.00;44.18
57894;BME280;43710;47.460;19.034;2023-03-23T12:17:05;100304.41;;;18.15;42.97
57894;BME280;43710;47.460;19.034;2023-03-23T12:23:38;100284.34;;;18.40;43.06
57894;BME280;43710;47.460;19.034;2023-03-23T12:33:54;100267.91;;;18.58;45.25
57894;BME280;43710;47.460;19.034;2023-03-23T12:40:24;100257.25;;;18.52;42.55
57894;BME280;43710;47.460;19.034;2023-03-23T12:43:43;100257.16;;;18.61;41.13
57894;BME280;43710;47.460;19.034;2023-03-23T12:47:37;100254.81;;;18.72;41.29
57894;BME280;43710;47.460;19.034;2023-03-23T12:50:26;100253.25;;;18.83;41.68
57894;BME280;43710;47.460;19.034;2023-03-23T12:53:37;100247.13;;;18.74;40.71
57894;BME280;43710;47.460;19.034;2023-03-23T12:56:50;100249.97;;;18.77;40.79
57894;BME280;43710;47.460;19.034;2023-03-23T13:00:19;100248.94;;;18.82;41.21
57894;BME280;43710;47.460;19.034;2023-03-23T13:06:52;100243.75;;;18.89;41.19
57894;BME280;43710;47.460;19.034;2023-03-23T13:10:00;100238.31;;;18.89;43.45
57894;BME280;43710;47.460;19.034;2023-03-23T13:13:03;100242.03;;;18.97;42.34
57894;BME280;43710;47.460;19.034;2023-03-23T13:16:07;100240.25;;;19.01;43.03
57894;BME280;43710;47.460;19.034;2023-03-23T13:22:38;100241.72;;;18.98;43.01
57894;BME280;43710;47.460;19.034;2023-03-23T13:25:48;100228.56;;;19.00;40.04
57894;BME280;43710;47.460;19.034;2023-03-23T13:32:18;100229.12;;;19.06;41.95
57894;BME280;43710;47.460;19.034;2023-03-23T13:35:21;100230.84;;;19.11;40.18
57894;BME280;43710;47.460;19.034;2023-03-23T13:38:29;100230.50;;;19.12;40.78
57894;BME280;43710;47.460;19.034;2023-03-23T13:41:31;100224.59;;;19.10;40.78
57894;BME280;43710;47.460;19.034;2023-03-23T13:48:22;100223.91;;;19.13;40.60
57894;BME280;43710;47.460;19.034;2023-03-23T13:54:41;100209.44;;;19.09;40.47
57894;BME280;43710;47.460;19.034;2023-03-23T13:57:53;100202.97;;;19.14;40.39
57894;BME280;43710;47.460;19.034;2023-03-23T14:04:17;100209.22;;;19.14;39.99
57894;BME280;43710;47.460;19.034;2023-03-23T14:07:19;100213.59;;;19.19;41.68
57894;BME280;43710;47.460;19.034;2023-03-23T14:10:21;100200.03;;;19.19;40.14
57894;BME280;43710;47.460;19.034;2023-03-23T14:13:29;100201.12;;;19.30;41.09
57894;BME280;43710;47.460;19.034;2023-03-23T14:19:38;100191.78;;;19.15;42.60
57894;BME280;43710;47.460;19.034;2023-03-23T14:22:40;100194.81;;;19.14;43.93
57894;BME280;43710;47.460;19.034;2023-03-23T14:25:41;100187.25;;;19.07;41.16
57894;BME280;43710;47.460;19.034;2023-03-23T14:28:49;100191.19;;;19.10;43.32
57894;BME280;43710;47.460;19.034;2023-03-23T14:31:54;100192.34;;;19.09;41.00
57894;BME280;43710;47.460;19.034;2023-03-23T14:34:56;100188.84;;;19.08;44.78
57894;BME280;43710;47.460;19.034;2023-03-23T14:37:58;100191.00;;;19.02;47.79
57894;BME280;43710;47.460;19.034;2023-03-23T14:41:02;100193.50;;;18.95;41.55
57894;BME280;43710;47.460;19.034;2023-03-23T14:44:07;100189.53;;;18.93;41.71
57894;BME280;43710;47.460;19.034;2023-03-23T14:47:19;100189.75;;;19.00;42.69
57894;BME280;43710;47.460;19.034;2023-03-23T14:50:31;100193.25;;;19.00;42.00
57894;BME280;43710;47.460;19.034;2023-03-23T14:53:38;100196.41;;;19.02;46.46
57894;BME280;43710;47.460;19.034;2023-03-23T14:56:40;100194.06;;;19.01;42.58
57894;BME280;43710;47.460;19.034;2023-03-23T14:59:43;100189.31;;;18.98;43.14
57894;BME280;43710;47.460;19.034;2023-03-23T15:02:49;100182.84;;;19.02;43.57
57894;BME280;43710;47.460;19.034;2023-03-23T15:06:00;100191.66;;;19.12;44.50
57894;BME280;43710;47.460;19.034;2023-03-23T15:09:06;100182.63;;;19.08;43.13
57894;BME280;43710;47.460;19.034;2023-03-23T15:12:20;100184.28;;;19.12;45.34
57894;BME280;43710;47.460;19.034;2023-03-23T15:15:31;100175.00;;;19.13;44.72
57894;BME280;43710;47.460;19.034;2023-03-23T15:18:35;100177.50;;;19.18;42.05
57894;BME280;43710;47.460;19.034;2023-03-23T15:21:49;100175.09;;;19.17;41.77
57894;BME280;43710;47.460;19.034;2023-03-23T15:24:53;100184.41;;;19.16;44.62
57894;BME280;43710;47.460;19.034;2023-03-23T15:27:57;100189.28;;;19.10;42.13
57894;BME280;43710;47.460;19.034;2023-03-23T15:31:04;100186.13;;;19.08;43.58
57894;BME280;43710;47.460;19.034;2023-03-23T15:34:13;100190.09;;;19.11;44.66
57894;BME280;43710;47.460;19.034;2023-03-23T15:37:30;100180.78;;;19.12;43.58
57894;BME280;43710;47.460;19.034;2023-03-23T15:40:35;100184.88;;;19.06;43.96
57894;BME280;43710;47.460;19.034;2023-03-23T15:43:55;100184.66;;;18.98;41.88
57894;BME280;43710;47.460;19.034;2023-03-23T15:47:12;100186.13;;;18.96;42.79
57894;BME280;43710;47.460;19.034;2023-03-23T15:53:35;100192.47;;;18.88;42.53
57894;BME280;43710;47.460;19.034;2023-03-23T15:56:39;100191.44;;;18.92;44.04
57894;BME280;43710;47.460;19.034;2023-03-23T15:59:40;100193.72;;;18.90;44.19
57894;BME280;43710;47.460;19.034;2023-03-23T16:02:45;100191.81;;;18.78;42.64
57894;BME280;43710;47.460;19.034;2023-03-23T16:05:48;100189.53;;;18.81;42.70
57894;BME280;43710;47.460;19.034;2023-03-23T16:08:55;100187.94;;;18.80;46.80
57894;BME280;43710;47.460;19.034;2023-03-23T16:11:58;100186.00;;;18.68;43.45
57894;BME280;43710;47.460;19.034;2023-03-23T16:15:00;100187.22;;;18.70;45.61
57894;BME280;43710;47.460;19.034;2023-03-23T16:18:02;100190.97;;;18.66;47.08
57894;BME280;43710;47.460;19.034;2023-03-23T16:21:05;100197.75;;;18.60;45.48
57894;BME280;43710;47.460;19.034;2023-03-23T16:24:08;100203.75;;;18.53;43.97
57894;BME280;43710;47.460;19.034;2023-03-23T16:27:11;100188.47;;;18.48;45.98
57894;BME280;43710;47.460;19.034;2023-03-23T16:30:23;100189.28;;;18.49;49.27
57894;BME280;43710;47.460;19.034;2023-03-23T16:33:26;100186.66;;;18.40;45.57
57894;BME280;43710;47.460;19.034;2023-03-23T16:36:28;100194.34;;;18.38;48.19
57894;BME280;43710;47.460;19.034;2023-03-23T16:39:30;100189.47;;;18.31;48.06
57894;BME280;43710;47.460;19.034;2023-03-23T16:42:33;100196.69;;;18.27;46.04
57894;BME280;43710;47.460;19.034;2023-03-23T16:45:40;100205.84;;;18.23;46.43
57894;BME280;43710;47.460;19.034;2023-03-23T16:48:45;100205.25;;;18.17;45.69
57894;BME280;43710;47.460;19.034;2023-03-23T16:51:47;100208.19;;;18.12;49.05
